sensor_id;sensor_type;location;lat;lon;timestamp;pressure;altitude;pressure_sealevel;temperature;humidity
64078;BME280;51039;49.696;10.808;2023-05-09T00:00:18;98774.44;;;13.87;69.35
64078;BME280;51039;49.696;10.808;2023-05-09T00:02:44;98766.44;;;13.87;69.78
64078;BME280;51039;49.696;10.808;2023-05-09T00:05:09;98772.81;;;13.86;69.66
64078;BME280;51039;49.696;10.808;2023-05-09T00:07:35;98763.16;;;13.85;69.68
64078;BME280;51039;49.696;10.808;2023-05-09T00:10:00;98762.38;;;13.85;69.98
64078;BME280;51039;49.696;10.808;2023-05-09T00:12:26;98758.09;;;13.84;69.99
64078;BME280;51039;49.696;10.808;2023-05-09T00:14:52;98757.84;;;13.85;69.89
64078;BME280;51039;49.696;10.808;2023-05-09T00:17:19;98760.34;;;13.80;69.92
64078;BME280;51039;49.696;10.808;2023-05-09T00:19:46;98748.06;;;13.79;69.58
64078;BME280;51039;49.696;10.808;2023-05-09T00:22:12;98751.31;;;13.81;69.17
64078;BME280;51039;49.696;10.808;2023-05-09T00:24:38;98747.25;;;13.79;69.73
64078;BME280;51039;49.696;10.808;2023-05-09T00:27:03;98751.72;;;13.85;68.75
64078;BME280;51039;49.696;10.808;2023-05-09T00:29:28;98746.38;;;13.85;68.39
64078;BME280;51039;49.696;10.808;2023-05-09T00:31:54;98744.78;;;13.84;68.22
64078;BME280;51039;49.696;10.808;2023-05-09T00:34:20;98747.66;;;13.82;68.72
64078;BME280;51039;49.696;10.808;2023-05-09T00:36:45;98754.44;;;13.71;69.66
64078;BME280;51039;49.696;10.808;2023-05-09T00:39:10;98747.91;;;13.67;71.09
64078;BME280;51039;49.696;10.808;2023-05-09T00:41:37;98747.34;;;13.59;71.29
64078;BME280;51039;49.696;10.808;2023-05-09T00:44:02;98741.22;;;13.58;69.49
64078;BME280;51039;49.696;10.808;2023-05-09T00:46:28;98739.75;;;13.62;69.08
64078;BME280;51039;49.696;10.808;2023-05-09T00:48:53;98739.59;;;13.57;70.18
64078;BME280;51039;49.696;10.808;2023-05-09T00:51:20;98732.69;;;13.43;71.34
64078;BME280;51039;49.696;10.808;2023-05-09T00:53:46;98733.16;;;13.26;72.62
64078;BME280;51039;49.696;10.808;2023-05-09T00:56:11;98734.38;;;13.24;72.75
64078;BME280;51039;49.696;10.808;2023-05-09T00:58:38;98742.59;;;13.22;72.93
64078;BME280;51039;49.696;10.808;2023-05-09T01:01:03;98732.75;;;13.23;72.55
64078;BME280;51039;49.696;10.808;2023-05-09T01:03:29;98726.19;;;13.25;72.44
64078;BME280;51039;49.696;10.808;2023-05-09T01:05:57;98723.13;;;13.28;72.10
64078;BME280;51039;49.696;10.808;2023-05-09T01:08:36;98722.06;;;13.29;72.48
64078;BME280;51039;49.696;10.808;2023-05-09T01:11:21;98721.09;;;13.30;73.00
64078;BME280;51039;49.696;10.808;2023-05-09T01:13:59;98726.19;;;13.32;72.77
64078;BME280;51039;49.696;10.808;2023-05-09T01:16:37;98724.31;;;13.26;73.05
64078;BME280;51039;49.696;10.808;2023-05-09T01:21:50;98719.94;;;13.00;73.52
64078;BME280;51039;49.696;10.808;2023-05-09T01:26:57;98709.47;;;13.05;73.50
64078;BME280;51039;49.696;10.808;2023-05-09T01:29:42;98709.47;;;13.05;72.78
64078;BME280;51039;49.696;10.808;2023-05-09T01:32:24;98696.41;;;13.03;73.08
64078;BME280;51039;49.696;10.808;2023-05-09T01:34:53;98696.81;;;13.00;73.19
64078;BME280;51039;49.696;10.808;2023-05-09T01:37:30;98693.16;;;13.01;73.00
64078;BME280;51039;49.696;10.808;2023-05-09T01:39:59;98692.09;;;13.02;72.87
64078;BME280;51039;49.696;10.808;2023-05-09T01:42:43;98697.63;;;13.01;73.47
64078;BME280;51039;49.696;10.808;2023-05-09T01:45:12;98693.16;;;13.01;73.01
64078;BME280;51039;49.696;10.808;2023-05-09T01:47:39;98688.44;;;13.03;73.06
64078;BME280;51039;49.696;10.808;2023-05-09T01:50:06;98688.00;;;13.06;73.19
64078;BME280;51039;49.696;10.808;2023-05-09T01:52:35;98690.03;;;13.04;72.68
64078;BME280;51039;49.696;10.808;2023-05-09T01:55:02;98695.56;;;13.03;71.99
64078;BME280;51039;49.696;10.808;2023-05-09T01:57:29;98692.91;;;13.03;72.88
64078;BME280;51039;49.696;10.808;2023-05-09T01:59:55;98691.50;;;13.07;72.25
64078;BME280;51039;49.696;10.808;2023-05-09T02:02:22;98695.34;;;13.11;73.75
64078;BME280;51039;49.696;10.808;2023-05-09T02:04:49;98695.56;;;13.09;71.95
64078;BME280;51039;49.696;10.808;2023-05-09T02:07:15;98691.25;;;13.15;71.77
64078;BME280;51039;49.696;10.808;2023-05-09T02:09:41;98690.44;;;13.08;72.04
64078;BME280;51039;49.696;10.808;2023-05-09T02:12:07;98692.28;;;13.07;73.54
64078;BME280;51039;49.696;10.808;2023-05-09T02:14:32;98686.78;;;13.09;73.18
64078;BME280;51039;49.696;10.808;2023-05-09T02:16:59;98690.66;;;13.06;69.61
64078;BME280;51039;49.696;10.808;2023-05-09T02:19:30;98688.84;;;13.07;71.34
64078;BME280;51039;49.696;10.808;2023-05-09T02:21:56;98690.25;;;13.09;73.16
64078;BME280;51039;49.696;10.808;2023-05-09T02:24:22;98702.13;;;13.07;71.42
64078;BME280;51039;49.696;10.808;2023-05-09T02:26:47;98698.66;;;13.00;71.66
64078;BME280;51039;49.696;10.808;2023-05-09T02:29:15;98695.00;;;12.87;71.61
64078;BME280;51039;49.696;10.808;2023-05-09T02:31:43;98695.25;;;12.79;72.76
64078;BME280;51039;49.696;10.808;2023-05-09T02:34:12;98694.44;;;12.72;72.50
64078;BME280;51039;49.696;10.808;2023-05-09T02:36:38;98689.56;;;12.69;72.96
64078;BME280;51039;49.696;10.808;2023-05-09T02:39:04;98689.56;;;12.69;73.01
64078;BME280;51039;49.696;10.808;2023-05-09T02:41:31;98691.59;;;12.67;72.68
64078;BME280;51039;49.696;10.808;2023-05-09T02:43:56;98686.69;;;12.64;72.63
64078;BME280;51039;49.696;10.808;2023-05-09T02:46:22;98691.81;;;12.65;72.32
64078;BME280;51039;49.696;10.808;2023-05-09T02:48:47;98681.19;;;12.65;72.32
64078;BME280;51039;49.696;10.808;2023-05-09T02:51:13;98683.03;;;12.65;72.56
64078;BME280;51039;49.696;10.808;2023-05-09T02:53:38;98674.44;;;12.63;72.41
64078;BME280;51039;49.696;10.808;2023-05-09T02:56:03;98677.31;;;12.61;72.44
64078;BME280;51039;49.696;10.808;2023-05-09T02:58:29;98680.56;;;12.56;72.38
64078;BME280;51039;49.696;10.808;2023-05-09T03:00:55;98682.22;;;12.57;72.38
64078;BME280;51039;49.696;10.808;2023-05-09T03:03:20;98685.69;;;12.58;72.24
64078;BME280;51039;49.696;10.808;2023-05-09T03:05:47;98681.41;;;12.57;72.14
64078;BME280;51039;49.696;10.808;2023-05-09T03:08:12;98682.22;;;12.57;72.50
64078;BME280;51039;49.696;10.808;2023-05-09T03:10:37;98679.97;;;12.54;72.37
64078;BME280;51039;49.696;10.808;2023-05-09T03:13:03;98675.69;;;12.53;72.73
64078;BME280;51039;49.696;10.808;2023-05-09T03:15:28;98686.09;;;12.48;72.97
64078;BME280;51039;49.696;10.808;2023-05-09T03:17:54;98670.38;;;12.47;73.32
64078;BME280;51039;49.696;10.808;2023-05-09T03:20:19;98673.66;;;12.42;73.92
64078;BME280;51039;49.696;10.808;2023-05-09T03:22:44;98667.94;;;12.38;74.38
64078;BME280;51039;49.696;10.808;2023-05-09T03:25:12;98667.53;;;12.35;74.81
64078;BME280;51039;49.696;10.808;2023-05-09T03:27:37;98666.91;;;12.33;74.15
64078;BME280;51039;49.696;10.808;2023-05-09T03:30:02;98669.56;;;12.33;74.65
64078;BME280;51039;49.696;10.808;2023-05-09T03:32:28;98665.09;;;12.27;75.03
64078;BME280;51039;49.696;10.808;2023-05-09T03:34:53;98670.81;;;12.24;74.72
64078;BME280;51039;49.696;10.808;2023-05-09T03:37:19;98662.25;;;12.28;75.53
64078;BME280;51039;49.696;10.808;2023-05-09T03:39:44;98662.03;;;12.23;75.62
64078;BME280;51039;49.696;10.808;2023-05-09T03:42:10;98659.56;;;12.22;76.08
64078;BME280;51039;49.696;10.808;2023-05-09T03:44:35;98654.47;;;12.20;76.09
64078;BME280;51039;49.696;10.808;2023-05-09T03:47:00;98655.28;;;12.14;76.26
64078;BME280;51039;49.696;10.808;2023-05-09T03:49:25;98652.03;;;12.12;76.40
64078;BME280;51039;49.696;10.808;2023-05-09T03:51:51;98653.66;;;12.20;76.12
64078;BME280;51039;49.696;10.808;2023-05-09T03:54:16;98654.88;;;12.24;76.62
64078;BME280;51039;49.696;10.808;2023-05-09T03:56:41;98662.22;;;12.22;75.58
64078;BME280;51039;49.696;10.808;2023-05-09T03:59:07;98674.91;;;12.26;75.81
64078;BME280;51039;49.696;10.808;2023-05-09T04:01:32;98672.84;;;12.35;75.19
64078;BME280;51039;49.696;10.808;2023-05-09T04:03:57;98662.25;;;12.28;75.28
64078;BME280;51039;49.696;10.808;2023-05-09T04:06:23;98668.34;;;12.29;75.36
64078;BME280;51039;49.696;10.808;2023-05-09T04:08:48;98668.34;;;12.29;74.68
64078;BME280;51039;49.696;10.808;2023-05-09T04:11:13;98673.03;;;12.33;75.50
64078;BME280;51039;49.696;10.808;2023-05-09T04:13:39;98677.53;;;12.46;76.54
64078;BME280;51039;49.696;10.808;2023-05-09T04:16:04;98679.38;;;12.46;74.68
64078;BME280;51039;49.696;10.808;2023-05-09T04:18:30;98679.56;;;12.57;74.04
64078;BME280;51039;49.696;10.808;2023-05-09T04:20:55;98673.56;;;12.75;74.03
64078;BME280;51039;49.696;10.808;2023-05-09T04:23:20;98670.09;;;12.75;74.20
64078;BME280;51039;49.696;10.808;2023-05-09T04:25:45;98667.47;;;12.62;74.77
64078;BME280;51039;49.696;10.808;2023-05-09T04:28:11;98671.16;;;12.67;74.25
64078;BME280;51039;49.696;10.808;2023-05-09T04:30:36;98666.00;;;12.79;74.15
64078;BME280;51039;49.696;10.808;2023-05-09T04:33:01;98665.19;;;12.72;74.36
64078;BME280;51039;49.696;10.808;2023-05-09T04:35:27;98675.81;;;12.72;74.36
64078;BME280;51039;49.696;10.808;2023-05-09T04:37:52;98668.56;;;13.06;73.29
64078;BME280;51039;49.696;10.808;2023-05-09T04:40:17;98676.91;;;13.16;72.96
64078;BME280;51039;49.696;10.808;2023-05-09T04:42:43;98671.34;;;13.31;71.72
64078;BME280;51039;49.696;10.808;2023-05-09T04:45:09;98667.25;;;14.42;68.65
64078;BME280;51039;49.696;10.808;2023-05-09T04:47:35;98676.06;;;14.43;67.09
64078;BME280;51039;49.696;10.808;2023-05-09T04:50:01;98675.66;;;14.21;68.40
64078;BME280;51039;49.696;10.808;2023-05-09T04:52:26;98672.75;;;15.21;65.14
64078;BME280;51039;49.696;10.808;2023-05-09T04:54:51;98669.00;;;16.25;61.42
64078;BME280;51039;49.696;10.808;2023-05-09T04:57:17;98672.47;;;18.16;55.13
64078;BME280;51039;49.696;10.808;2023-05-09T04:59:42;98663.56;;;19.33;50.60
64078;BME280;51039;49.696;10.808;2023-05-09T05:02:07;98670.03;;;19.86;48.30
64078;BME280;51039;49.696;10.808;2023-05-09T05:04:33;98658.69;;;20.59;46.39
64078;BME280;51039;49.696;10.808;2023-05-09T05:06:58;98665.28;;;21.57;44.62
64078;BME280;51039;49.696;10.808;2023-05-09T05:09:23;98655.91;;;22.21;42.41
64078;BME280;51039;49.696;10.808;2023-05-09T05:11:48;98669.28;;;22.72;42.34
64078;BME280;51039;49.696;10.808;2023-05-09T05:14:14;98657.25;;;22.03;42.58
64078;BME280;51039;49.696;10.808;2023-05-09T05:16:39;98665.59;;;21.86;43.57
64078;BME280;51039;49.696;10.808;2023-05-09T05:19:05;98654.78;;;22.17;41.53
64078;BME280;51039;49.696;10.808;2023-05-09T05:21:30;98660.22;;;22.27;41.94
64078;BME280;51039;49.696;10.808;2023-05-09T05:23:56;98653.25;;;23.12;40.48
64078;BME280;51039;49.696;10.808;2023-05-09T05:26:21;98653.47;;;21.89;41.83
64078;BME280;51039;49.696;10.808;2023-05-09T05:28:47;98649.13;;;23.25;39.49
64078;BME280;51039;49.696;10.808;2023-05-09T05:31:12;98650.31;;;23.03;39.42
64078;BME280;51039;49.696;10.808;2023-05-09T05:33:37;98649.53;;;22.92;40.78
64078;BME280;51039;49.696;10.808;2023-05-09T05:36:03;98652.13;;;20.39;45.50
64078;BME280;51039;49.696;10.808;2023-05-09T05:38:28;98655.06;;;19.41;48.34
64078;BME280;51039;49.696;10.808;2023-05-09T05:40:54;98653.97;;;18.93;49.65
64078;BME280;51039;49.696;10.808;2023-05-09T05:43:19;98658.47;;;18.31;50.99
64078;BME280;51039;49.696;10.808;2023-05-09T05:45:44;98651.38;;;18.98;49.30
64078;BME280;51039;49.696;10.808;2023-05-09T05:48:10;98653.63;;;17.94;51.57
64078;BME280;51039;49.696;10.808;2023-05-09T05:50:35;98648.97;;;16.86;54.62
64078;BME280;51039;49.696;10.808;2023-05-09T05:53:01;98646.34;;;17.78;53.04
64078;BME280;51039;49.696;10.808;2023-05-09T05:55:26;98642.19;;;19.43;49.05
64078;BME280;51039;49.696;10.808;2023-05-09T05:57:52;98643.94;;;20.19;46.62
64078;BME280;51039;49.696;10.808;2023-05-09T06:00:17;98642.41;;;21.65;43.35
64078;BME280;51039;49.696;10.808;2023-05-09T06:02:43;98635.00;;;21.14;43.43
64078;BME280;51039;49.696;10.808;2023-05-09T06:05:09;98625.78;;;22.84;40.17
64078;BME280;51039;49.696;10.808;2023-05-09T06:07:35;98629.72;;;21.50;43.29
64078;BME280;51039;49.696;10.808;2023-05-09T06:10:01;98625.63;;;21.27;44.47
64078;BME280;51039;49.696;10.808;2023-05-09T06:12:26;98625.09;;;19.81;45.32
64078;BME280;51039;49.696;10.808;2023-05-09T06:14:52;98628.47;;;18.73;48.81
64078;BME280;51039;49.696;10.808;2023-05-09T06:17:17;98628.28;;;17.85;50.21
64078;BME280;51039;49.696;10.808;2023-05-09T06:19:42;98626.00;;;17.77;51.17
64078;BME280;51039;49.696;10.808;2023-05-09T06:22:08;98621.94;;;17.00;52.69
64078;BME280;51039;49.696;10.808;2023-05-09T06:24:33;98624.97;;;17.03;53.14
64078;BME280;51039;49.696;10.808;2023-05-09T06:26:58;98616.84;;;16.86;53.62
64078;BME280;51039;49.696;10.808;2023-05-09T06:29:24;98612.78;;;16.84;52.84
64078;BME280;51039;49.696;10.808;2023-05-09T06:31:49;98613.91;;;17.29;51.42
64078;BME280;51039;49.696;10.808;2023-05-09T06:34:14;98612.72;;;17.36;50.96
64078;BME280;51039;49.696;10.808;2023-05-09T06:36:40;98607.31;;;17.65;50.20
64078;BME280;51039;49.696;10.808;2023-05-09T06:39:05;98613.94;;;17.62;50.11
64078;BME280;51039;49.696;10.808;2023-05-09T06:41:30;98609.38;;;18.48;47.77
64078;BME280;51039;49.696;10.808;2023-05-09T06:43:56;98614.91;;;21.58;40.56
64078;BME280;51039;49.696;10.808;2023-05-09T06:46:21;98609.41;;;22.60;39.21
64078;BME280;51039;49.696;10.808;2023-05-09T06:48:46;98617.97;;;22.83;38.75
64078;BME280;51039;49.696;10.808;2023-05-09T06:51:12;98611.06;;;25.92;33.57
64078;BME280;51039;49.696;10.808;2023-05-09T06:53:37;98608.41;;;26.89;30.70
64078;BME280;51039;49.696;10.808;2023-05-09T06:56:03;98601.09;;;24.92;34.02
64078;BME280;51039;49.696;10.808;2023-05-09T06:58:28;98603.28;;;23.49;36.82
64078;BME280;51039;49.696;10.808;2023-05-09T07:00:54;98594.63;;;26.16;33.43
64078;BME280;51039;49.696;10.808;2023-05-09T07:03:20;98590.47;;;25.72;33.49
64078;BME280;51039;49.696;10.808;2023-05-09T07:05:45;98584.38;;;27.32;30.84
64078;BME280;51039;49.696;10.808;2023-05-09T07:08:10;98581.78;;;28.26;30.00
64078;BME280;51039;49.696;10.808;2023-05-09T07:10:36;98583.78;;;28.43;28.69
64078;BME280;51039;49.696;10.808;2023-05-09T07:13:02;98586.16;;;28.36;28.34
64078;BME280;51039;49.696;10.808;2023-05-09T07:15:27;98590.63;;;27.55;29.02
64078;BME280;51039;49.696;10.808;2023-05-09T07:17:53;98586.56;;;27.44;29.42
64078;BME280;51039;49.696;10.808;2023-05-09T07:20:18;98575.53;;;28.66;28.70
64078;BME280;51039;49.696;10.808;2023-05-09T07:22:43;98589.66;;;28.68;26.58
64078;BME280;51039;49.696;10.808;2023-05-09T07:25:09;98583.09;;;30.00;27.36
64078;BME280;51039;49.696;10.808;2023-05-09T07:27:34;98577.50;;;28.83;27.13
64078;BME280;51039;49.696;10.808;2023-05-09T07:30:01;98583.22;;;28.55;27.79
64078;BME280;51039;49.696;10.808;2023-05-09T07:32:30;98579.38;;;27.12;28.87
64078;BME280;51039;49.696;10.808;2023-05-09T07:34:55;98573.78;;;28.30;27.96
64078;BME280;51039;49.696;10.808;2023-05-09T07:37:21;98564.34;;;28.36;26.92
64078;BME280;51039;49.696;10.808;2023-05-09T07:39:46;98560.78;;;28.67;27.54
64078;BME280;51039;49.696;10.808;2023-05-09T07:42:12;98560.81;;;27.73;28.06
64078;BME280;51039;49.696;10.808;2023-05-09T07:44:37;98559.84;;;25.85;31.08
64078;BME280;51039;49.696;10.808;2023-05-09T07:47:03;98555.28;;;27.87;28.44
64078;BME280;51039;49.696;10.808;2023-05-09T07:49:29;98550.72;;;27.96;27.35
64078;BME280;51039;49.696;10.808;2023-05-09T07:51:55;98551.31;;;27.61;27.93
64078;BME280;51039;49.696;10.808;2023-05-09T07:54:20;98544.94;;;27.44;28.63
64078;BME280;51039;49.696;10.808;2023-05-09T07:56:45;98546.75;;;29.43;26.12
64078;BME280;51039;49.696;10.808;2023-05-09T07:59:11;98544.03;;;28.02;27.88
64078;BME280;51039;49.696;10.808;2023-05-09T08:01:36;98537.44;;;26.90;28.89
64078;BME280;51039;49.696;10.808;2023-05-09T08:04:02;98533.78;;;26.72;29.51
64078;BME280;51039;49.696;10.808;2023-05-09T08:06:29;98526.56;;;26.68;29.87
64078;BME280;51039;49.696;10.808;2023-05-09T08:08:54;98525.91;;;27.97;29.15
64078;BME280;51039;49.696;10.808;2023-05-09T08:11:19;98523.94;;;28.20;27.51
64078;BME280;51039;49.696;10.808;2023-05-09T08:13:45;98517.66;;;30.12;26.09
64078;BME280;51039;49.696;10.808;2023-05-09T08:16:12;98511.91;;;29.49;25.75
64078;BME280;51039;49.696;10.808;2023-05-09T08:18:37;98516.91;;;30.41;25.60
64078;BME280;51039;49.696;10.808;2023-05-09T08:21:02;98508.88;;;29.42;25.30
64078;BME280;51039;49.696;10.808;2023-05-09T08:23:28;98511.88;;;29.66;25.55
64078;BME280;51039;49.696;10.808;2023-05-09T08:25:54;98511.00;;;29.92;25.94
64078;BME280;51039;49.696;10.808;2023-05-09T08:28:20;98500.69;;;29.42;27.54
64078;BME280;51039;49.696;10.808;2023-05-09T08:30:48;98500.03;;;29.10;26.17
64078;BME280;51039;49.696;10.808;2023-05-09T08:33:14;98488.34;;;29.27;26.48
64078;BME280;51039;49.696;10.808;2023-05-09T08:35:39;98491.22;;;28.78;26.74
64078;BME280;51039;49.696;10.808;2023-05-09T08:38:05;98478.38;;;28.78;28.45
64078;BME280;51039;49.696;10.808;2023-05-09T08:40:32;98480.44;;;29.43;26.58
64078;BME280;51039;49.696;10.808;2023-05-09T08:42:59;98474.81;;;28.52;26.81
64078;BME280;51039;49.696;10.808;2023-05-09T08:45:26;98475.88;;;29.73;27.37
64078;BME280;51039;49.696;10.808;2023-05-09T08:47:54;98470.06;;;29.19;25.83
64078;BME280;51039;49.696;10.808;2023-05-09T08:50:20;98458.19;;;28.71;26.57
64078;BME280;51039;49.696;10.808;2023-05-09T08:52:46;98462.13;;;28.30;27.10
64078;BME280;51039;49.696;10.808;2023-05-09T08:55:12;98442.63;;;28.97;26.67
64078;BME280;51039;49.696;10.808;2023-05-09T08:57:38;98445.13;;;29.93;25.29
64078;BME280;51039;49.696;10.808;2023-05-09T09:00:04;98438.97;;;29.75;24.51
64078;BME280;51039;49.696;10.808;2023-05-09T09:02:31;98447.44;;;28.83;25.46
64078;BME280;51039;49.696;10.808;2023-05-09T09:04:57;98443.22;;;29.47;24.86
64078;BME280;51039;49.696;10.808;2023-05-09T09:07:22;98444.28;;;28.06;26.13
64078;BME280;51039;49.696;10.808;2023-05-09T09:09:51;98448.41;;;28.52;25.50
64078;BME280;51039;49.696;10.808;2023-05-09T09:12:20;98439.88;;;28.89;25.38
64078;BME280;51039;49.696;10.808;2023-05-09T09:14:48;98423.81;;;28.35;25.26
64078;BME280;51039;49.696;10.808;2023-05-09T09:17:20;98432.56;;;27.97;26.35
64078;BME280;51039;49.696;10.808;2023-05-09T09:19:51;98429.72;;;28.19;27.56
64078;BME280;51039;49.696;10.808;2023-05-09T09:22:20;98426.09;;;27.53;27.19
64078;BME280;51039;49.696;10.808;2023-05-09T09:24:46;98423.78;;;29.40;25.67
64078;BME280;51039;49.696;10.808;2023-05-09T09:27:12;98422.41;;;28.98;25.64
64078;BME280;51039;49.696;10.808;2023-05-09T09:29:37;98411.50;;;29.16;25.44
64078;BME280;51039;49.696;10.808;2023-05-09T09:32:03;98403.56;;;29.41;24.70
64078;BME280;51039;49.696;10.808;2023-05-09T09:34:30;98387.06;;;29.28;24.80
64078;BME280;51039;49.696;10.808;2023-05-09T09:36:55;98384.25;;;28.98;25.55
64078;BME280;51039;49.696;10.808;2023-05-09T09:39:20;98388.53;;;29.26;26.10
64078;BME280;51039;49.696;10.808;2023-05-09T09:41:47;98380.47;;;29.38;24.64
64078;BME280;51039;49.696;10.808;2023-05-09T09:44:13;98378.69;;;27.85;25.66
64078;BME280;51039;49.696;10.808;2023-05-09T09:46:50;98387.09;;;26.81;27.01
64078;BME280;51039;49.696;10.808;2023-05-09T09:49:17;98383.44;;;26.63;27.51
64078;BME280;51039;49.696;10.808;2023-05-09T09:51:53;98385.66;;;26.61;28.61
64078;BME280;51039;49.696;10.808;2023-05-09T09:54:20;98368.97;;;27.53;27.86
64078;BME280;51039;49.696;10.808;2023-05-09T09:56:46;98372.53;;;27.31;27.12
64078;BME280;51039;49.696;10.808;2023-05-09T09:59:22;98369.28;;;27.91;26.96
64078;BME280;51039;49.696;10.808;2023-05-09T10:04:25;98363.59;;;27.08;28.23
64078;BME280;51039;49.696;10.808;2023-05-09T10:06:59;98352.69;;;26.76;27.94
64078;BME280;51039;49.696;10.808;2023-05-09T10:09:29;98329.63;;;27.59;27.79
64078;BME280;51039;49.696;10.808;2023-05-09T10:11:55;98337.25;;;28.06;26.85
64078;BME280;51039;49.696;10.808;2023-05-09T10:14:22;98334.72;;;27.52;27.32
64078;BME280;51039;49.696;10.808;2023-05-09T10:16:50;98325.53;;;27.08;27.21
64078;BME280;51039;49.696;10.808;2023-05-09T10:19:19;98328.34;;;27.56;29.10
64078;BME280;51039;49.696;10.808;2023-05-09T10:21:48;98317.25;;;28.45;26.35
64078;BME280;51039;49.696;10.808;2023-05-09T10:24:33;98330.88;;;27.53;26.99
64078;BME280;51039;49.696;10.808;2023-05-09T10:27:12;98322.19;;;27.11;27.06
64078;BME280;51039;49.696;10.808;2023-05-09T10:29:45;98305.81;;;27.82;26.52
64078;BME280;51039;49.696;10.808;2023-05-09T10:35:05;98304.81;;;26.21;29.17
64078;BME280;51039;49.696;10.808;2023-05-09T10:37:32;98300.69;;;25.60;29.00
64078;BME280;51039;49.696;10.808;2023-05-09T10:39:58;98301.28;;;25.98;28.88
64078;BME280;51039;49.696;10.808;2023-05-09T10:42:25;98299.09;;;25.31;29.28
64078;BME280;51039;49.696;10.808;2023-05-09T10:44:52;98291.97;;;26.13;29.12
64078;BME280;51039;49.696;10.808;2023-05-09T10:47:18;98267.75;;;26.93;26.21
64078;BME280;51039;49.696;10.808;2023-05-09T10:49:45;98273.31;;;25.98;27.80
64078;BME280;51039;49.696;10.808;2023-05-09T10:52:10;98252.06;;;25.63;27.47
64078;BME280;51039;49.696;10.808;2023-05-09T10:54:36;98254.03;;;24.75;27.88
64078;BME280;51039;49.696;10.808;2023-05-09T10:57:01;98254.53;;;24.77;29.13
64078;BME280;51039;49.696;10.808;2023-05-09T10:59:40;98252.88;;;24.95;28.26
64078;BME280;51039;49.696;10.808;2023-05-09T11:02:10;98246.16;;;25.98;28.79
64078;BME280;51039;49.696;10.808;2023-05-09T11:04:39;98247.66;;;25.67;29.26
64078;BME280;51039;49.696;10.808;2023-05-09T11:07:06;98242.50;;;26.16;28.17
64078;BME280;51039;49.696;10.808;2023-05-09T11:09:51;98230.88;;;25.52;27.39
64078;BME280;51039;49.696;10.808;2023-05-09T11:12:18;98231.41;;;25.26;28.84
64078;BME280;51039;49.696;10.808;2023-05-09T11:14:48;98220.44;;;24.76;30.37
64078;BME280;51039;49.696;10.808;2023-05-09T11:24:44;98208.31;;;25.01;26.66
64078;BME280;51039;49.696;10.808;2023-05-09T11:27:36;98202.06;;;25.42;26.98
64078;BME280;51039;49.696;10.808;2023-05-09T11:30:03;98204.22;;;25.31;26.31
64078;BME280;51039;49.696;10.808;2023-05-09T11:32:31;98203.66;;;25.57;26.20
64078;BME280;51039;49.696;10.808;2023-05-09T11:35:32;98192.31;;;25.55;26.92
64078;BME280;51039;49.696;10.808;2023-05-09T11:37:52;98190.72;;;24.71;28.69
64078;BME280;51039;49.696;10.808;2023-05-09T11:40:24;98178.31;;;24.83;27.11
64078;BME280;51039;49.696;10.808;2023-05-09T11:42:52;98179.41;;;24.96;26.76
64078;BME280;51039;49.696;10.808;2023-05-09T11:45:19;98169.09;;;24.98;26.49
64078;BME280;51039;49.696;10.808;2023-05-09T11:47:45;98172.16;;;25.47;25.81
64078;BME280;51039;49.696;10.808;2023-05-09T11:50:12;98173.44;;;25.50;26.79
64078;BME280;51039;49.696;10.808;2023-05-09T11:52:38;98172.09;;;25.61;26.36
64078;BME280;51039;49.696;10.808;2023-05-09T11:55:04;98158.34;;;24.65;25.09
64078;BME280;51039;49.696;10.808;2023-05-09T11:57:32;98157.75;;;24.36;27.59
64078;BME280;51039;49.696;10.808;2023-05-09T11:59:58;98156.06;;;24.40;28.01
64078;BME280;51039;49.696;10.808;2023-05-09T12:02:24;98149.69;;;24.63;26.22
64078;BME280;51039;49.696;10.808;2023-05-09T12:04:50;98145.66;;;25.16;26.02
64078;BME280;51039;49.696;10.808;2023-05-09T12:07:15;98138.00;;;24.35;26.28
64078;BME280;51039;49.696;10.808;2023-05-09T12:09:42;98125.63;;;24.15;26.61
64078;BME280;51039;49.696;10.808;2023-05-09T12:12:11;98133.38;;;24.22;27.19
64078;BME280;51039;49.696;10.808;2023-05-09T12:14:37;98124.56;;;24.30;27.20
64078;BME280;51039;49.696;10.808;2023-05-09T12:17:03;98123.81;;;24.71;26.06
64078;BME280;51039;49.696;10.808;2023-05-09T12:19:30;98123.28;;;25.11;27.08
64078;BME280;51039;49.696;10.808;2023-05-09T12:21:56;98121.25;;;25.30;27.49
64078;BME280;51039;49.696;10.808;2023-05-09T12:24:23;98115.16;;;25.11;26.63
64078;BME280;51039;49.696;10.808;2023-05-09T12:26:50;98102.91;;;25.27;27.71
64078;BME280;51039;49.696;10.808;2023-05-09T12:29:16;98093.25;;;25.21;26.16
64078;BME280;51039;49.696;10.808;2023-05-09T12:31:42;98094.97;;;25.17;27.75
64078;BME280;51039;49.696;10.808;2023-05-09T12:34:08;98089.38;;;25.27;28.40
64078;BME280;51039;49.696;10.808;2023-05-09T12:36:34;98093.56;;;25.56;27.54
64078;BME280;51039;49.696;10.808;2023-05-09T12:39:01;98094.19;;;25.53;24.94
64078;BME280;51039;49.696;10.808;2023-05-09T12:41:27;98085.31;;;24.74;27.69
64078;BME280;51039;49.696;10.808;2023-05-09T12:43:53;98078.53;;;24.99;28.90
64078;BME280;51039;49.696;10.808;2023-05-09T12:46:20;98086.66;;;25.27;27.47
64078;BME280;51039;49.696;10.808;2023-05-09T12:48:45;98079.84;;;24.88;25.28
64078;BME280;51039;49.696;10.808;2023-05-09T12:51:15;98079.47;;;24.67;24.94
64078;BME280;51039;49.696;10.808;2023-05-09T12:53:45;98061.91;;;24.50;25.22
64078;BME280;51039;49.696;10.808;2023-05-09T12:56:11;98056.69;;;24.26;25.77
64078;BME280;51039;49.696;10.808;2023-05-09T12:58:39;98063.84;;;23.89;28.83
64078;BME280;51039;49.696;10.808;2023-05-09T13:01:12;98055.81;;;24.45;26.17
64078;BME280;51039;49.696;10.808;2023-05-09T13:03:38;98050.81;;;24.52;26.55
64078;BME280;51039;49.696;10.808;2023-05-09T13:06:04;98046.78;;;24.22;27.53